sensor_id;sensor_type;location;lat;lon;timestamp;P1;durP1;ratioP1;P2;durP2;ratioP2
1410;SDS011;700;51.906;8.404;2023-05-10T00:02:39;11.93;;;10.83;;
1410;SDS011;700;51.906;8.404;2023-05-10T00:07:40;11.90;;;10.90;;
1410;SDS011;700;51.906;8.404;2023-05-10T00:12:44;12.80;;;11.60;;
1410;SDS011;700;51.906;8.404;2023-05-10T00:17:47;13.40;;;12.10;;
1410;SDS011;700;51.906;8.404;2023-05-10T00:22:47;11.13;;;10.03;;
1410;SDS011;700;51.906;8.404;2023-05-10T00:27:50;11.40;;;10.23;;
1410;SDS011;700;51.906;8.404;2023-05-10T00:32:55;11.20;;;10.10;;
1410;SDS011;700;51.906;8.404;2023-05-10T00:37:55;9.53;;;8.70;;
1410;SDS011;700;51.906;8.404;2023-05-10T00:42:58;10.77;;;9.70;;
1410;SDS011;700;51.906;8.404;2023-05-10T00:48:01;9.53;;;8.63;;
1410;SDS011;700;51.906;8.404;2023-05-10T00:53:03;10.30;;;9.30;;
1410;SDS011;700;51.906;8.404;2023-05-10T00:58:07;10.23;;;9.13;;
1410;SDS011;700;51.906;8.404;2023-05-10T01:03:07;10.00;;;9.20;;
1410;SDS011;700;51.906;8.404;2023-05-10T01:08:11;11.03;;;10.03;;
1410;SDS011;700;51.906;8.404;2023-05-10T01:13:16;10.90;;;9.90;;
1410;SDS011;700;51.906;8.404;2023-05-10T01:18:33;9.97;;;9.07;;
1410;SDS011;700;51.906;8.404;2023-05-10T01:29:13;9.70;;;8.77;;
1410;SDS011;700;51.906;8.404;2023-05-10T01:34:35;6.50;;;5.90;;
1410;SDS011;700;51.906;8.404;2023-05-10T01:39:54;7.67;;;7.00;;
1410;SDS011;700;51.906;8.404;2023-05-10T01:45:07;6.27;;;5.20;;
1410;SDS011;700;51.906;8.404;2023-05-10T01:50:14;6.30;;;5.70;;
1410;SDS011;700;51.906;8.404;2023-05-10T01:55:18;6.03;;;5.43;;
1410;SDS011;700;51.906;8.404;2023-05-10T02:00:22;6.77;;;6.10;;
1410;SDS011;700;51.906;8.404;2023-05-10T02:05:24;6.57;;;5.97;;
1410;SDS011;700;51.906;8.404;2023-05-10T02:10:27;8.03;;;6.07;;
1410;SDS011;700;51.906;8.404;2023-05-10T02:15:30;6.80;;;6.20;;
1410;SDS011;700;51.906;8.404;2023-05-10T02:20:32;6.77;;;6.07;;
1410;SDS011;700;51.906;8.404;2023-05-10T02:25:34;7.37;;;6.57;;
1410;SDS011;700;51.906;8.404;2023-05-10T02:30:39;7.90;;;7.10;;
1410;SDS011;700;51.906;8.404;2023-05-10T02:35:45;9.47;;;8.07;;
1410;SDS011;700;51.906;8.404;2023-05-10T02:40:49;8.60;;;7.80;;
1410;SDS011;700;51.906;8.404;2023-05-10T02:45:51;10.23;;;9.20;;
1410;SDS011;700;51.906;8.404;2023-05-10T02:50:52;10.10;;;9.10;;
1410;SDS011;700;51.906;8.404;2023-05-10T02:56:10;10.60;;;9.50;;
1410;SDS011;700;51.906;8.404;2023-05-10T03:01:15;11.10;;;10.00;;
1410;SDS011;700;51.906;8.404;2023-05-10T03:06:18;12.17;;;10.87;;
1410;SDS011;700;51.906;8.404;2023-05-10T03:16:52;12.77;;;11.47;;
1410;SDS011;700;51.906;8.404;2023-05-10T03:22:03;10.73;;;9.60;;
1410;SDS011;700;51.906;8.404;2023-05-10T03:27:10;14.23;;;9.60;;
1410;SDS011;700;51.906;8.404;2023-05-10T03:32:11;12.00;;;10.70;;
1410;SDS011;700;51.906;8.404;2023-05-10T03:37:12;8.97;;;8.07;;
1410;SDS011;700;51.906;8.404;2023-05-10T03:42:14;9.67;;;7.90;;
1410;SDS011;700;51.906;8.404;2023-05-10T03:47:20;5.43;;;4.93;;
1410;SDS011;700;51.906;8.404;2023-05-10T03:52:23;3.67;;;3.30;;
1410;SDS011;700;51.906;8.404;2023-05-10T03:57:23;3.43;;;2.43;;
1410;SDS011;700;51.906;8.404;2023-05-10T04:02:26;3.73;;;2.33;;
1410;SDS011;700;51.906;8.404;2023-05-10T04:07:26;2.80;;;2.47;;
1410;SDS011;700;51.906;8.404;2023-05-10T04:12:27;2.33;;;1.90;;
1410;SDS011;700;51.906;8.404;2023-05-10T04:17:28;2.10;;;1.80;;
1410;SDS011;700;51.906;8.404;2023-05-10T04:22:31;2.03;;;1.70;;
1410;SDS011;700;51.906;8.404;2023-05-10T04:27:32;2.63;;;2.10;;
1410;SDS011;700;51.906;8.404;2023-05-10T04:32:33;2.73;;;2.53;;
1410;SDS011;700;51.906;8.404;2023-05-10T04:37:38;2.37;;;2.13;;
1410;SDS011;700;51.906;8.404;2023-05-10T04:42:42;8.73;;;5.40;;
1410;SDS011;700;51.906;8.404;2023-05-10T04:47:46;3.20;;;2.20;;
1410;SDS011;700;51.906;8.404;2023-05-10T04:52:49;2.60;;;2.40;;
1410;SDS011;700;51.906;8.404;2023-05-10T04:57:49;3.13;;;2.83;;
1410;SDS011;700;51.906;8.404;2023-05-10T05:02:50;2.80;;;2.60;;
1410;SDS011;700;51.906;8.404;2023-05-10T05:07:53;4.27;;;2.87;;
1410;SDS011;700;51.906;8.404;2023-05-10T05:12:56;2.63;;;2.43;;
1410;SDS011;700;51.906;8.404;2023-05-10T05:17:59;3.20;;;2.60;;
1410;SDS011;700;51.906;8.404;2023-05-10T05:22:59;3.77;;;2.43;;
1410;SDS011;700;51.906;8.404;2023-05-10T05:28:03;2.80;;;2.50;;
1410;SDS011;700;51.906;8.404;2023-05-10T05:33:03;2.90;;;2.30;;
1410;SDS011;700;51.906;8.404;2023-05-10T05:38:04;3.07;;;2.50;;
1410;SDS011;700;51.906;8.404;2023-05-10T05:43:05;2.97;;;2.57;;
1410;SDS011;700;51.906;8.404;2023-05-10T05:48:05;3.60;;;2.83;;
1410;SDS011;700;51.906;8.404;2023-05-10T05:53:06;3.80;;;2.80;;
1410;SDS011;700;51.906;8.404;2023-05-10T05:58:09;3.30;;;3.00;;
1410;SDS011;700;51.906;8.404;2023-05-10T06:03:10;4.50;;;2.93;;
1410;SDS011;700;51.906;8.404;2023-05-10T06:08:10;4.73;;;3.07;;
1410;SDS011;700;51.906;8.404;2023-05-10T06:13:13;3.47;;;3.10;;
1410;SDS011;700;51.906;8.404;2023-05-10T06:18:14;3.50;;;3.20;;
1410;SDS011;700;51.906;8.404;2023-05-10T06:23:17;3.03;;;2.73;;
1410;SDS011;700;51.906;8.404;2023-05-10T06:28:20;4.70;;;3.10;;
1410;SDS011;700;51.906;8.404;2023-05-10T06:33:21;4.07;;;3.37;;
1410;SDS011;700;51.906;8.404;2023-05-10T06:38:22;7.30;;;3.50;;
1410;SDS011;700;51.906;8.404;2023-05-10T06:43:22;4.63;;;2.90;;
1410;SDS011;700;51.906;8.404;2023-05-10T06:48:24;4.40;;;3.33;;
1410;SDS011;700;51.906;8.404;2023-05-10T06:53:24;4.20;;;3.80;;
1410;SDS011;700;51.906;8.404;2023-05-10T06:58:25;9.00;;;5.93;;
1410;SDS011;700;51.906;8.404;2023-05-10T07:03:26;8.80;;;7.00;;
1410;SDS011;700;51.906;8.404;2023-05-10T07:08:26;19.03;;;14.70;;
1410;SDS011;700;51.906;8.404;2023-05-10T07:13:32;13.20;;;9.93;;
1410;SDS011;700;51.906;8.404;2023-05-10T07:18:33;14.13;;;9.40;;
1410;SDS011;700;51.906;8.404;2023-05-10T07:23:36;17.47;;;12.43;;
1410;SDS011;700;51.906;8.404;2023-05-10T07:28:37;13.37;;;9.97;;
1410;SDS011;700;51.906;8.404;2023-05-10T07:33:39;11.50;;;9.20;;
1410;SDS011;700;51.906;8.404;2023-05-10T07:38:44;11.73;;;9.20;;
1410;SDS011;700;51.906;8.404;2023-05-10T07:43:45;10.27;;;8.30;;
1410;SDS011;700;51.906;8.404;2023-05-10T07:48:48;13.03;;;9.37;;
1410;SDS011;700;51.906;8.404;2023-05-10T07:53:48;11.40;;;9.83;;
1410;SDS011;700;51.906;8.404;2023-05-10T07:58:51;12.87;;;10.50;;
1410;SDS011;700;51.906;8.404;2023-05-10T08:03:52;15.00;;;12.87;;
1410;SDS011;700;51.906;8.404;2023-05-10T08:08:55;15.17;;;13.03;;
1410;SDS011;700;51.906;8.404;2023-05-10T08:13:56;15.00;;;12.77;;
1410;SDS011;700;51.906;8.404;2023-05-10T08:18:57;14.97;;;13.37;;
1410;SDS011;700;51.906;8.404;2023-05-10T08:23:58;17.87;;;15.17;;
1410;SDS011;700;51.906;8.404;2023-05-10T08:29:01;20.13;;;16.17;;
1410;SDS011;700;51.906;8.404;2023-05-10T08:34:02;20.50;;;16.00;;
1410;SDS011;700;51.906;8.404;2023-05-10T08:39:05;24.37;;;18.17;;
1410;SDS011;700;51.906;8.404;2023-05-10T08:44:06;19.70;;;16.00;;
1410;SDS011;700;51.906;8.404;2023-05-10T08:49:13;20.63;;;17.07;;
1410;SDS011;700;51.906;8.404;2023-05-10T08:54:22;20.47;;;17.60;;
1410;SDS011;700;51.906;8.404;2023-05-10T08:59:24;21.10;;;18.20;;
1410;SDS011;700;51.906;8.404;2023-05-10T09:04:27;20.43;;;17.73;;
1410;SDS011;700;51.906;8.404;2023-05-10T09:09:31;23.60;;;20.17;;
1410;SDS011;700;51.906;8.404;2023-05-10T09:14:33;23.13;;;19.23;;
1410;SDS011;700;51.906;8.404;2023-05-10T09:19:35;25.23;;;19.70;;
1410;SDS011;700;51.906;8.404;2023-05-10T09:24:38;20.70;;;18.47;;
1410;SDS011;700;51.906;8.404;2023-05-10T09:29:42;26.83;;;21.50;;
1410;SDS011;700;51.906;8.404;2023-05-10T09:34:43;22.43;;;20.00;;
1410;SDS011;700;51.906;8.404;2023-05-10T09:39:44;22.30;;;20.10;;
1410;SDS011;700;51.906;8.404;2023-05-10T09:44:45;23.13;;;20.77;;
1410;SDS011;700;51.906;8.404;2023-05-10T09:49:49;20.60;;;18.40;;
1410;SDS011;700;51.906;8.404;2023-05-10T09:54:56;16.37;;;14.87;;
1410;SDS011;700;51.906;8.404;2023-05-10T09:59:59;14.83;;;13.40;;
1410;SDS011;700;51.906;8.404;2023-05-10T10:05:00;14.73;;;12.07;;
1410;SDS011;700;51.906;8.404;2023-05-10T10:10:03;13.07;;;11.73;;
1410;SDS011;700;51.906;8.404;2023-05-10T10:15:07;12.77;;;11.47;;
1410;SDS011;700;51.906;8.404;2023-05-10T10:20:09;13.70;;;12.57;;
1410;SDS011;700;51.906;8.404;2023-05-10T10:25:10;13.67;;;12.37;;
1410;SDS011;700;51.906;8.404;2023-05-10T10:30:19;14.30;;;12.90;;
1410;SDS011;700;51.906;8.404;2023-05-10T10:35:32;12.20;;;11.10;;
1410;SDS011;700;51.906;8.404;2023-05-10T10:40:34;11.10;;;10.10;;
1410;SDS011;700;51.906;8.404;2023-05-10T10:45:34;14.70;;;12.83;;
1410;SDS011;700;51.906;8.404;2023-05-10T10:50:43;13.20;;;11.90;;
1410;SDS011;700;51.906;8.404;2023-05-10T10:55:46;13.33;;;11.50;;
1410;SDS011;700;51.906;8.404;2023-05-10T11:00:47;12.27;;;10.90;;
1410;SDS011;700;51.906;8.404;2023-05-10T11:05:53;11.23;;;10.10;;
1410;SDS011;700;51.906;8.404;2023-05-10T11:11:05;9.63;;;8.70;;
1410;SDS011;700;51.906;8.404;2023-05-10T11:16:14;10.80;;;9.70;;
1410;SDS011;700;51.906;8.404;2023-05-10T11:21:25;12.50;;;11.20;;
1410;SDS011;700;51.906;8.404;2023-05-10T11:26:35;12.57;;;11.27;;
1410;SDS011;700;51.906;8.404;2023-05-10T11:31:44;11.40;;;10.30;;
1410;SDS011;700;51.906;8.404;2023-05-10T11:36:46;14.67;;;12.33;;
1410;SDS011;700;51.906;8.404;2023-05-10T11:41:51;14.07;;;12.67;;
1410;SDS011;700;51.906;8.404;2023-05-10T11:46:52;14.97;;;13.40;;
1410;SDS011;700;51.906;8.404;2023-05-10T11:51:53;24.50;;;18.27;;
1410;SDS011;700;51.906;8.404;2023-05-10T11:57:03;14.83;;;13.33;;
1410;SDS011;700;51.906;8.404;2023-05-10T12:02:04;14.27;;;12.33;;
1410;SDS011;700;51.906;8.404;2023-05-10T12:07:07;16.43;;;13.63;;
1410;SDS011;700;51.906;8.404;2023-05-10T12:12:07;16.00;;;12.30;;
1410;SDS011;700;51.906;8.404;2023-05-10T12:17:13;14.30;;;12.40;;
1410;SDS011;700;51.906;8.404;2023-05-10T12:22:20;19.80;;;13.60;;
1410;SDS011;700;51.906;8.404;2023-05-10T12:27:23;16.20;;;13.43;;
1410;SDS011;700;51.906;8.404;2023-05-10T12:32:36;14.47;;;12.90;;
1410;SDS011;700;51.906;8.404;2023-05-10T12:37:38;16.07;;;13.93;;
1410;SDS011;700;51.906;8.404;2023-05-10T12:42:39;17.87;;;14.10;;
1410;SDS011;700;51.906;8.404;2023-05-10T12:47:42;17.40;;;13.13;;
1410;SDS011;700;51.906;8.404;2023-05-10T12:52:42;14.60;;;12.60;;
1410;SDS011;700;51.906;8.404;2023-05-10T12:57:43;15.97;;;11.87;;
1410;SDS011;700;51.906;8.404;2023-05-10T13:02:46;15.77;;;12.60;;
1410;SDS011;700;51.906;8.404;2023-05-10T13:07:46;17.00;;;12.83;;
1410;SDS011;700;51.906;8.404;2023-05-10T13:12:47;15.80;;;13.97;;
1410;SDS011;700;51.906;8.404;2023-05-10T13:17:50;16.00;;;13.03;;
1410;SDS011;700;51.906;8.404;2023-05-10T13:22:51;14.63;;;13.03;;
1410;SDS011;700;51.906;8.404;2023-05-10T13:27:51;19.47;;;15.10;;
1410;SDS011;700;51.906;8.404;2023-05-10T13:32:52;17.13;;;12.27;;
1410;SDS011;700;51.906;8.404;2023-05-10T13:37:55;16.70;;;13.30;;
1410;SDS011;700;51.906;8.404;2023-05-10T13:42:58;14.20;;;12.70;;
1410;SDS011;700;51.906;8.404;2023-05-10T13:48:01;18.07;;;13.43;;
1410;SDS011;700;51.906;8.404;2023-05-10T13:53:02;14.87;;;12.30;;
1410;SDS011;700;51.906;8.404;2023-05-10T13:58:05;15.23;;;12.80;;
1410;SDS011;700;51.906;8.404;2023-05-10T14:03:06;14.00;;;12.57;;
1410;SDS011;700;51.906;8.404;2023-05-10T14:08:10;14.90;;;12.80;;
1410;SDS011;700;51.906;8.404;2023-05-10T14:13:13;18.87;;;16.20;;
1410;SDS011;700;51.906;8.404;2023-05-10T14:18:13;17.93;;;14.50;;
1410;SDS011;700;51.906;8.404;2023-05-10T14:23:14;18.97;;;16.60;;
1410;SDS011;700;51.906;8.404;2023-05-10T14:28:14;17.20;;;15.20;;
1410;SDS011;700;51.906;8.404;2023-05-10T14:33:17;19.20;;;15.03;;
1410;SDS011;700;51.906;8.404;2023-05-10T14:38:18;18.10;;;16.17;;
1410;SDS011;700;51.906;8.404;2023-05-10T14:43:18;22.13;;;15.30;;
1410;SDS011;700;51.906;8.404;2023-05-10T14:48:19;23.17;;;16.17;;
1410;SDS011;700;51.906;8.404;2023-05-10T14:53:24;21.67;;;15.47;;
1410;SDS011;700;51.906;8.404;2023-05-10T14:58:25;19.03;;;14.30;;
1410;SDS011;700;51.906;8.404;2023-05-10T15:03:26;18.27;;;15.93;;
1410;SDS011;700;51.906;8.404;2023-05-10T15:08:28;20.87;;;18.53;;
1410;SDS011;700;51.906;8.404;2023-05-10T15:13:29;18.30;;;16.07;;
1410;SDS011;700;51.906;8.404;2023-05-10T15:18:32;19.17;;;16.20;;
1410;SDS011;700;51.906;8.404;2023-05-10T15:23:35;18.97;;;16.00;;
1410;SDS011;700;51.906;8.404;2023-05-10T15:28:36;23.30;;;17.50;;
1410;SDS011;700;51.906;8.404;2023-05-10T15:33:36;22.70;;;17.80;;
1410;SDS011;700;51.906;8.404;2023-05-10T15:38:40;21.00;;;17.40;;
1410;SDS011;700;51.906;8.404;2023-05-10T15:43:41;21.13;;;17.67;;
1410;SDS011;700;51.906;8.404;2023-05-10T15:48:41;19.23;;;15.87;;
1410;SDS011;700;51.906;8.404;2023-05-10T15:53:42;22.60;;;19.27;;
1410;SDS011;700;51.906;8.404;2023-05-10T15:58:43;16.80;;;12.60;;
1410;SDS011;700;51.906;8.404;2023-05-10T16:03:43;20.17;;;17.63;;
1410;SDS011;700;51.906;8.404;2023-05-10T16:08:44;27.93;;;18.00;;
1410;SDS011;700;51.906;8.404;2023-05-10T16:13:47;25.23;;;16.70;;
1410;SDS011;700;51.906;8.404;2023-05-10T16:18:47;19.57;;;17.60;;
1410;SDS011;700;51.906;8.404;2023-05-10T16:23:51;17.00;;;15.20;;
1410;SDS011;700;51.906;8.404;2023-05-10T16:28:51;23.00;;;17.70;;
1410;SDS011;700;51.906;8.404;2023-05-10T16:33:52;20.10;;;16.13;;
1410;SDS011;700;51.906;8.404;2023-05-10T16:38:52;18.20;;;14.70;;
1410;SDS011;700;51.906;8.404;2023-05-10T16:44:00;16.80;;;13.43;;
1410;SDS011;700;51.906;8.404;2023-05-10T16:49:02;17.20;;;13.37;;
1410;SDS011;700;51.906;8.404;2023-05-10T16:54:03;16.27;;;14.50;;
1410;SDS011;700;51.906;8.404;2023-05-10T16:59:04;19.23;;;15.80;;
1410;SDS011;700;51.906;8.404;2023-05-10T17:04:06;20.53;;;17.30;;
1410;SDS011;700;51.906;8.404;2023-05-10T17:09:07;19.90;;;16.50;;
1410;SDS011;700;51.906;8.404;2023-05-10T17:14:07;22.10;;;17.73;;
1410;SDS011;700;51.906;8.404;2023-05-10T17:19:11;18.07;;;15.03;;
1410;SDS011;700;51.906;8.404;2023-05-10T17:24:12;16.77;;;14.70;;
1410;SDS011;700;51.906;8.404;2023-05-10T17:29:15;14.60;;;13.10;;
1410;SDS011;700;51.906;8.404;2023-05-10T17:34:16;14.70;;;12.27;;
1410;SDS011;700;51.906;8.404;2023-05-10T17:39:16;18.17;;;12.67;;
1410;SDS011;700;51.906;8.404;2023-05-10T17:44:17;20.07;;;14.50;;
1410;SDS011;700;51.906;8.404;2023-05-10T17:49:18;14.90;;;13.30;;
1410;SDS011;700;51.906;8.404;2023-05-10T17:54:18;17.33;;;15.00;;
1410;SDS011;700;51.906;8.404;2023-05-10T17:59:19;16.70;;;14.90;;
1410;SDS011;700;51.906;8.404;2023-05-10T18:04:25;19.00;;;14.00;;
1410;SDS011;700;51.906;8.404;2023-05-10T18:09:26;18.30;;;15.03;;
1410;SDS011;700;51.906;8.404;2023-05-10T18:14:29;19.23;;;15.97;;
1410;SDS011;700;51.906;8.404;2023-05-10T18:19:32;16.83;;;13.90;;
1410;SDS011;700;51.906;8.404;2023-05-10T18:24:35;14.27;;;12.77;;
1410;SDS011;700;51.906;8.404;2023-05-10T18:29:38;16.40;;;12.50;;
1410;SDS011;700;51.906;8.404;2023-05-10T18:34:41;17.67;;;13.70;;
1410;SDS011;700;51.906;8.404;2023-05-10T18:39:42;17.37;;;15.20;;
1410;SDS011;700;51.906;8.404;2023-05-10T18:44:45;19.27;;;15.70;;
1410;SDS011;700;51.906;8.404;2023-05-10T18:49:45;14.90;;;12.63;;
1410;SDS011;700;51.906;8.404;2023-05-10T18:54:46;16.03;;;14.33;;
1410;SDS011;700;51.906;8.404;2023-05-10T18:59:48;17.50;;;12.90;;
1410;SDS011;700;51.906;8.404;2023-05-10T19:04:48;15.73;;;14.10;;
1410;SDS011;700;51.906;8.404;2023-05-10T19:09:49;15.60;;;12.90;;
1410;SDS011;700;51.906;8.404;2023-05-10T19:14:50;15.73;;;13.20;;
1410;SDS011;700;51.906;8.404;2023-05-10T19:19:53;14.47;;;12.43;;
1410;SDS011;700;51.906;8.404;2023-05-10T19:24:56;16.10;;;12.93;;
1410;SDS011;700;51.906;8.404;2023-05-10T19:29:59;17.70;;;15.43;;
1410;SDS011;700;51.906;8.404;2023-05-10T19:35:00;15.80;;;13.53;;
1410;SDS011;700;51.906;8.404;2023-05-10T19:40:01;16.80;;;15.00;;
1410;SDS011;700;51.906;8.404;2023-05-10T19:45:01;15.17;;;13.37;;
1410;SDS011;700;51.906;8.404;2023-05-10T19:50:02;17.50;;;14.67;;
1410;SDS011;700;51.906;8.404;2023-05-10T19:55:04;17.90;;;14.73;;
1410;SDS011;700;51.906;8.404;2023-05-10T20:00:05;14.73;;;13.23;;
1410;SDS011;700;51.906;8.404;2023-05-10T20:05:06;16.50;;;14.00;;
1410;SDS011;700;51.906;8.404;2023-05-10T20:10:09;16.57;;;14.83;;
1410;SDS011;700;51.906;8.404;2023-05-10T20:15:10;17.83;;;15.00;;
1410;SDS011;700;51.906;8.404;2023-05-10T20:20:13;16.53;;;14.80;;
1410;SDS011;700;51.906;8.404;2023-05-10T20:25:19;17.33;;;15.00;;
1410;SDS011;700;51.906;8.404;2023-05-10T20:30:20;19.37;;;15.63;;
1410;SDS011;700;51.906;8.404;2023-05-10T20:35:21;18.73;;;15.80;;
1410;SDS011;700;51.906;8.404;2023-05-10T20:40:21;19.63;;;17.27;;
1410;SDS011;700;51.906;8.404;2023-05-10T20:45:24;20.13;;;18.07;;
1410;SDS011;700;51.906;8.404;2023-05-10T20:50:25;21.40;;;18.03;;
1410;SDS011;700;51.906;8.404;2023-05-10T20:55:28;22.30;;;17.43;;
1410;SDS011;700;51.906;8.404;2023-05-10T21:00:29;22.73;;;19.43;;
1410;SDS011;700;51.906;8.404;2023-05-10T21:05:29;24.60;;;21.17;;
1410;SDS011;700;51.906;8.404;2023-05-10T21:10:30;24.83;;;22.10;;
1410;SDS011;700;51.906;8.404;2023-05-10T21:15:33;24.47;;;21.90;;
1410;SDS011;700;51.906;8.404;2023-05-10T21:20:34;25.10;;;21.27;;
1410;SDS011;700;51.906;8.404;2023-05-10T21:25:34;23.73;;;21.13;;
1410;SDS011;700;51.906;8.404;2023-05-10T21:30:36;22.63;;;20.23;;
1410;SDS011;700;51.906;8.404;2023-05-10T21:35:37;23.90;;;21.40;;
1410;SDS011;700;51.906;8.404;2023-05-10T21:40:41;24.07;;;21.47;;
1410;SDS011;700;51.906;8.404;2023-05-10T21:45:42;30.57;;;27.23;;
1410;SDS011;700;51.906;8.404;2023-05-10T21:50:43;23.17;;;20.90;;
1410;SDS011;700;51.906;8.404;2023-05-10T21:55:44;22.93;;;20.37;;
1410;SDS011;700;51.906;8.404;2023-05-10T22:00:44;22.23;;;19.70;;
1410;SDS011;700;51.906;8.404;2023-05-10T22:05:45;23.80;;;21.43;;
1410;SDS011;700;51.906;8.404;2023-05-10T22:10:46;23.93;;;20.57;;
1410;SDS011;700;51.906;8.404;2023-05-10T22:15:47;22.80;;;20.60;;
1410;SDS011;700;51.906;8.404;2023-05-10T22:20:47;22.30;;;19.97;;
1410;SDS011;700;51.906;8.404;2023-05-10T22:25:50;23.23;;;20.50;;
1410;SDS011;700;51.906;8.404;2023-05-10T22:30:53;20.90;;;18.53;;
1410;SDS011;700;51.906;8.404;2023-05-10T22:35:53;23.67;;;20.90;;
1410;SDS011;700;51.906;8.404;2023-05-10T22:40:56;26.50;;;22.10;;
1410;SDS011;700;51.906;8.404;2023-05-10T22:45:59;23.17;;;20.47;;
1410;SDS011;700;51.906;8.404;2023-05-10T22:51:00;26.07;;;23.27;;
1410;SDS011;700;51.906;8.404;2023-05-10T22:56:04;26.07;;;23.10;;
1410;SDS011;700;51.906;8.404;2023-05-10T23:01:05;27.23;;;22.50;;
1410;SDS011;700;51.906;8.404;2023-05-10T23:06:05;23.77;;;21.37;;
1410;SDS011;700;51.906;8.404;2023-05-10T23:11:09;23.97;;;21.47;;
1410;SDS011;700;51.906;8.404;2023-05-10T23:16:14;26.83;;;23.97;;
1410;SDS011;700;51.906;8.404;2023-05-10T23:21:17;24.20;;;21.70;;
1410;SDS011;700;51.906;8.404;2023-05-10T23:26:18;23.77;;;20.90;;
1410;SDS011;700;51.906;8.404;2023-05-10T23:31:18;22.80;;;20.43;;
1410;SDS011;700;51.906;8.404;2023-05-10T23:36:19;25.00;;;22.20;;
1410;SDS011;700;51.906;8.404;2023-05-10T23:41:22;22.57;;;19.57;;
1410;SDS011;700;51.906;8.404;2023-05-10T23:46:25;22.13;;;19.10;;
1410;SDS011;700;51.906;8.404;2023-05-10T23:51:28;21.93;;;19.50;;
1410;SDS011;700;51.906;8.404;2023-05-10T23:56:28;21.63;;;19.53;;
